sensor_id;sensor_type;location;lat;lon;timestamp;P1;durP1;ratioP1;P2;durP2;ratioP2
52894;SDS011;38759;53.396;6.722;2023-10-19T00:00:47;15.68;;;7.55;;
52894;SDS011;38759;53.396;6.722;2023-10-19T00:03:15;16.45;;;7.90;;
52894;SDS011;38759;53.396;6.722;2023-10-19T00:05:43;17.00;;;9.20;;
52894;SDS011;38759;53.396;6.722;2023-10-19T00:08:10;16.67;;;8.60;;
52894;SDS011;38759;53.396;6.722;2023-10-19T00:10:39;20.70;;;8.45;;
52894;SDS011;38759;53.396;6.722;2023-10-19T00:13:10;14.82;;;8.48;;
52894;SDS011;38759;53.396;6.722;2023-10-19T00:15:37;20.45;;;7.88;;
52894;SDS011;38759;53.396;6.722;2023-10-19T00:18:13;13.63;;;7.93;;
52894;SDS011;38759;53.396;6.722;2023-10-19T00:20:39;14.10;;;8.55;;
52894;SDS011;38759;53.396;6.722;2023-10-19T00:23:11;18.60;;;9.07;;
52894;SDS011;38759;53.396;6.722;2023-10-19T00:25:38;16.13;;;8.90;;
52894;SDS011;38759;53.396;6.722;2023-10-19T00:28:07;22.60;;;10.25;;
52894;SDS011;38759;53.396;6.722;2023-10-19T00:30:33;22.50;;;10.48;;
52894;SDS011;38759;53.396;6.722;2023-10-19T00:33:02;18.80;;;10.75;;
52894;SDS011;38759;53.396;6.722;2023-10-19T00:35:33;19.98;;;9.85;;
52894;SDS011;38759;53.396;6.722;2023-10-19T00:38:01;17.60;;;9.90;;
52894;SDS011;38759;53.396;6.722;2023-10-19T00:40:52;18.48;;;9.07;;
52894;SDS011;38759;53.396;6.722;2023-10-19T00:43:29;26.08;;;9.07;;
52894;SDS011;38759;53.396;6.722;2023-10-19T00:46:03;18.77;;;8.80;;
52894;SDS011;38759;53.396;6.722;2023-10-19T00:51:23;20.48;;;9.18;;
52894;SDS011;38759;53.396;6.722;2023-10-19T00:53:58;18.05;;;9.02;;
52894;SDS011;38759;53.396;6.722;2023-10-19T00:56:40;17.27;;;9.07;;
52894;SDS011;38759;53.396;6.722;2023-10-19T00:59:15;24.57;;;9.23;;
52894;SDS011;38759;53.396;6.722;2023-10-19T01:01:49;18.02;;;9.05;;
52894;SDS011;38759;53.396;6.722;2023-10-19T01:04:19;17.13;;;8.98;;
52894;SDS011;38759;53.396;6.722;2023-10-19T01:06:48;14.13;;;8.68;;
52894;SDS011;38759;53.396;6.722;2023-10-19T01:09:37;20.73;;;9.73;;
52894;SDS011;38759;53.396;6.722;2023-10-19T01:12:04;23.10;;;10.82;;
52894;SDS011;38759;53.396;6.722;2023-10-19T01:17:48;16.05;;;9.50;;
52894;SDS011;38759;53.396;6.722;2023-10-19T01:20:21;21.70;;;9.60;;
52894;SDS011;38759;53.396;6.722;2023-10-19T01:23:04;16.33;;;9.07;;
52894;SDS011;38759;53.396;6.722;2023-10-19T01:25:43;17.90;;;9.48;;
52894;SDS011;38759;53.396;6.722;2023-10-19T01:28:15;15.05;;;9.27;;
52894;SDS011;38759;53.396;6.722;2023-10-19T01:30:42;20.80;;;9.30;;
52894;SDS011;38759;53.396;6.722;2023-10-19T01:33:09;18.10;;;10.30;;
52894;SDS011;38759;53.396;6.722;2023-10-19T01:35:39;20.45;;;8.82;;
52894;SDS011;38759;53.396;6.722;2023-10-19T01:38:23;19.38;;;9.80;;
52894;SDS011;38759;53.396;6.722;2023-10-19T01:40:50;20.15;;;9.90;;
52894;SDS011;38759;53.396;6.722;2023-10-19T01:43:16;20.30;;;9.85;;
52894;SDS011;38759;53.396;6.722;2023-10-19T01:45:51;21.48;;;11.38;;
52894;SDS011;38759;53.396;6.722;2023-10-19T01:48:20;21.60;;;11.35;;
52894;SDS011;38759;53.396;6.722;2023-10-19T01:50:53;19.80;;;11.27;;
52894;SDS011;38759;53.396;6.722;2023-10-19T01:53:18;21.67;;;11.68;;
52894;SDS011;38759;53.396;6.722;2023-10-19T01:55:50;22.80;;;10.07;;
52894;SDS011;38759;53.396;6.722;2023-10-19T01:58:22;21.90;;;10.73;;
52894;SDS011;38759;53.396;6.722;2023-10-19T02:00:52;18.60;;;9.32;;
52894;SDS011;38759;53.396;6.722;2023-10-19T02:03:25;21.58;;;10.75;;
52894;SDS011;38759;53.396;6.722;2023-10-19T02:06:00;23.48;;;9.02;;
52894;SDS011;38759;53.396;6.722;2023-10-19T02:08:35;22.55;;;10.73;;
52894;SDS011;38759;53.396;6.722;2023-10-19T02:11:03;18.90;;;9.88;;
52894;SDS011;38759;53.396;6.722;2023-10-19T02:13:38;19.88;;;10.15;;
52894;SDS011;38759;53.396;6.722;2023-10-19T02:16:04;21.83;;;10.48;;
52894;SDS011;38759;53.396;6.722;2023-10-19T02:18:32;20.05;;;10.20;;
52894;SDS011;38759;53.396;6.722;2023-10-19T02:21:00;21.55;;;10.60;;
52894;SDS011;38759;53.396;6.722;2023-10-19T02:23:31;19.75;;;11.07;;
52894;SDS011;38759;53.396;6.722;2023-10-19T02:25:59;20.85;;;11.50;;
52894;SDS011;38759;53.396;6.722;2023-10-19T02:28:25;18.65;;;10.45;;
52894;SDS011;38759;53.396;6.722;2023-10-19T02:30:56;19.77;;;10.43;;
52894;SDS011;38759;53.396;6.722;2023-10-19T02:33:23;17.48;;;9.10;;
52894;SDS011;38759;53.396;6.722;2023-10-19T02:35:51;20.30;;;9.57;;
52894;SDS011;38759;53.396;6.722;2023-10-19T02:38:17;16.38;;;8.73;;
52894;SDS011;38759;53.396;6.722;2023-10-19T02:40:42;16.52;;;9.40;;
52894;SDS011;38759;53.396;6.722;2023-10-19T02:43:08;19.25;;;9.07;;
52894;SDS011;38759;53.396;6.722;2023-10-19T02:45:34;15.05;;;9.43;;
52894;SDS011;38759;53.396;6.722;2023-10-19T02:47:59;21.85;;;9.35;;
52894;SDS011;38759;53.396;6.722;2023-10-19T02:50:25;16.85;;;9.38;;
52894;SDS011;38759;53.396;6.722;2023-10-19T02:52:51;16.40;;;9.10;;
52894;SDS011;38759;53.396;6.722;2023-10-19T02:55:18;14.32;;;7.90;;
52894;SDS011;38759;53.396;6.722;2023-10-19T02:57:49;19.92;;;9.60;;
52894;SDS011;38759;53.396;6.722;2023-10-19T03:00:15;14.27;;;9.18;;
52894;SDS011;38759;53.396;6.722;2023-10-19T03:02:45;14.57;;;8.10;;
52894;SDS011;38759;53.396;6.722;2023-10-19T03:05:12;18.08;;;9.07;;
52894;SDS011;38759;53.396;6.722;2023-10-19T03:07:40;13.45;;;8.70;;
52894;SDS011;38759;53.396;6.722;2023-10-19T03:10:09;15.13;;;8.93;;
52894;SDS011;38759;53.396;6.722;2023-10-19T03:13:10;16.15;;;9.50;;
52894;SDS011;38759;53.396;6.722;2023-10-19T03:15:39;10.90;;;6.72;;
52894;SDS011;38759;53.396;6.722;2023-10-19T03:18:08;12.32;;;7.18;;
52894;SDS011;38759;53.396;6.722;2023-10-19T03:20:33;12.10;;;7.40;;
52894;SDS011;38759;53.396;6.722;2023-10-19T03:23:02;11.23;;;7.05;;
52894;SDS011;38759;53.396;6.722;2023-10-19T03:25:28;10.88;;;7.75;;
52894;SDS011;38759;53.396;6.722;2023-10-19T03:28:12;10.30;;;6.40;;
52894;SDS011;38759;53.396;6.722;2023-10-19T03:30:38;13.98;;;6.80;;
52894;SDS011;38759;53.396;6.722;2023-10-19T03:33:04;11.10;;;6.70;;
52894;SDS011;38759;53.396;6.722;2023-10-19T03:35:37;12.48;;;7.05;;
52894;SDS011;38759;53.396;6.722;2023-10-19T03:38:04;11.02;;;6.30;;
52894;SDS011;38759;53.396;6.722;2023-10-19T03:40:44;11.23;;;6.35;;
52894;SDS011;38759;53.396;6.722;2023-10-19T03:43:20;10.57;;;6.25;;
52894;SDS011;38759;53.396;6.722;2023-10-19T03:45:51;11.68;;;6.18;;
52894;SDS011;38759;53.396;6.722;2023-10-19T03:48:21;9.50;;;6.40;;
52894;SDS011;38759;53.396;6.722;2023-10-19T03:50:52;11.07;;;6.38;;
52894;SDS011;38759;53.396;6.722;2023-10-19T03:53:22;14.32;;;5.90;;
52894;SDS011;38759;53.396;6.722;2023-10-19T03:55:48;7.03;;;4.82;;
52894;SDS011;38759;53.396;6.722;2023-10-19T03:58:15;5.15;;;3.85;;
52894;SDS011;38759;53.396;6.722;2023-10-19T04:00:41;12.25;;;5.32;;
52894;SDS011;38759;53.396;6.722;2023-10-19T04:03:09;8.25;;;4.82;;
52894;SDS011;38759;53.396;6.722;2023-10-19T04:05:35;8.32;;;4.50;;
52894;SDS011;38759;53.396;6.722;2023-10-19T04:08:04;8.93;;;5.25;;
52894;SDS011;38759;53.396;6.722;2023-10-19T04:10:38;8.85;;;5.47;;
52894;SDS011;38759;53.396;6.722;2023-10-19T04:13:09;9.95;;;4.88;;
52894;SDS011;38759;53.396;6.722;2023-10-19T04:15:36;7.43;;;4.32;;
52894;SDS011;38759;53.396;6.722;2023-10-19T04:18:05;7.57;;;4.25;;
52894;SDS011;38759;53.396;6.722;2023-10-19T04:20:39;9.93;;;4.57;;
52894;SDS011;38759;53.396;6.722;2023-10-19T04:23:23;8.73;;;4.53;;
52894;SDS011;38759;53.396;6.722;2023-10-19T04:25:53;6.65;;;4.40;;
52894;SDS011;38759;53.396;6.722;2023-10-19T04:28:23;8.57;;;4.10;;
52894;SDS011;38759;53.396;6.722;2023-10-19T04:31:07;4.95;;;3.65;;
52894;SDS011;38759;53.396;6.722;2023-10-19T04:33:38;10.45;;;3.92;;
52894;SDS011;38759;53.396;6.722;2023-10-19T04:36:04;6.57;;;3.50;;
52894;SDS011;38759;53.396;6.722;2023-10-19T04:38:34;5.18;;;3.28;;
52894;SDS011;38759;53.396;6.722;2023-10-19T04:41:09;4.75;;;3.65;;
52894;SDS011;38759;53.396;6.722;2023-10-19T04:43:36;6.68;;;4.00;;
52894;SDS011;38759;53.396;6.722;2023-10-19T04:46:11;7.70;;;4.53;;
52894;SDS011;38759;53.396;6.722;2023-10-19T04:48:40;8.73;;;3.58;;
52894;SDS011;38759;53.396;6.722;2023-10-19T04:51:07;8.45;;;3.55;;
52894;SDS011;38759;53.396;6.722;2023-10-19T04:53:34;5.72;;;3.83;;
52894;SDS011;38759;53.396;6.722;2023-10-19T04:56:00;7.30;;;3.60;;
52894;SDS011;38759;53.396;6.722;2023-10-19T04:58:28;10.27;;;3.72;;
52894;SDS011;38759;53.396;6.722;2023-10-19T05:00:54;4.45;;;3.42;;
52894;SDS011;38759;53.396;6.722;2023-10-19T05:03:21;3.50;;;2.97;;
52894;SDS011;38759;53.396;6.722;2023-10-19T05:05:46;5.97;;;3.13;;
52894;SDS011;38759;53.396;6.722;2023-10-19T05:08:12;4.43;;;3.20;;
52894;SDS011;38759;53.396;6.722;2023-10-19T05:10:38;4.63;;;3.17;;
52894;SDS011;38759;53.396;6.722;2023-10-19T05:13:03;4.28;;;2.90;;
52894;SDS011;38759;53.396;6.722;2023-10-19T05:15:29;4.90;;;3.40;;
52894;SDS011;38759;53.396;6.722;2023-10-19T05:17:55;7.22;;;3.33;;
52894;SDS011;38759;53.396;6.722;2023-10-19T05:20:21;4.20;;;3.10;;
52894;SDS011;38759;53.396;6.722;2023-10-19T05:22:50;4.18;;;3.10;;
52894;SDS011;38759;53.396;6.722;2023-10-19T05:25:16;4.70;;;3.47;;
52894;SDS011;38759;53.396;6.722;2023-10-19T05:27:42;6.43;;;3.55;;
52894;SDS011;38759;53.396;6.722;2023-10-19T05:30:07;8.52;;;3.58;;
52894;SDS011;38759;53.396;6.722;2023-10-19T05:32:36;5.07;;;3.35;;
52894;SDS011;38759;53.396;6.722;2023-10-19T05:35:03;4.80;;;3.55;;
52894;SDS011;38759;53.396;6.722;2023-10-19T05:37:30;6.25;;;3.42;;
52894;SDS011;38759;53.396;6.722;2023-10-19T05:39:56;5.05;;;3.20;;
52894;SDS011;38759;53.396;6.722;2023-10-19T05:42:27;6.72;;;3.38;;
52894;SDS011;38759;53.396;6.722;2023-10-19T05:44:54;7.30;;;3.13;;
52894;SDS011;38759;53.396;6.722;2023-10-19T05:47:20;3.75;;;2.78;;
52894;SDS011;38759;53.396;6.722;2023-10-19T05:49:45;4.40;;;3.00;;
52894;SDS011;38759;53.396;6.722;2023-10-19T05:52:11;4.78;;;2.92;;
52894;SDS011;38759;53.396;6.722;2023-10-19T05:54:37;6.13;;;3.20;;
52894;SDS011;38759;53.396;6.722;2023-10-19T05:57:02;4.65;;;3.33;;
52894;SDS011;38759;53.396;6.722;2023-10-19T05:59:33;3.92;;;2.92;;
52894;SDS011;38759;53.396;6.722;2023-10-19T06:01:59;4.18;;;2.63;;
52894;SDS011;38759;53.396;6.722;2023-10-19T06:04:24;3.45;;;2.70;;
52894;SDS011;38759;53.396;6.722;2023-10-19T06:06:50;3.80;;;2.75;;
52894;SDS011;38759;53.396;6.722;2023-10-19T06:09:16;3.25;;;2.75;;
52894;SDS011;38759;53.396;6.722;2023-10-19T06:11:43;3.20;;;2.50;;
52894;SDS011;38759;53.396;6.722;2023-10-19T06:14:09;4.10;;;2.42;;
52894;SDS011;38759;53.396;6.722;2023-10-19T06:16:38;5.85;;;2.38;;
52894;SDS011;38759;53.396;6.722;2023-10-19T06:19:03;4.45;;;2.33;;
52894;SDS011;38759;53.396;6.722;2023-10-19T06:21:30;4.00;;;1.88;;
52894;SDS011;38759;53.396;6.722;2023-10-19T06:23:56;2.70;;;2.05;;
52894;SDS011;38759;53.396;6.722;2023-10-19T06:26:23;3.05;;;2.10;;
52894;SDS011;38759;53.396;6.722;2023-10-19T06:28:48;2.63;;;2.10;;
52894;SDS011;38759;53.396;6.722;2023-10-19T06:31:16;3.72;;;2.20;;
52894;SDS011;38759;53.396;6.722;2023-10-19T06:33:42;3.05;;;2.22;;
52894;SDS011;38759;53.396;6.722;2023-10-19T06:36:07;3.25;;;2.47;;
52894;SDS011;38759;53.396;6.722;2023-10-19T06:38:34;3.40;;;2.70;;
52894;SDS011;38759;53.396;6.722;2023-10-19T06:40:59;3.28;;;2.47;;
52894;SDS011;38759;53.396;6.722;2023-10-19T06:43:28;5.03;;;2.85;;
52894;SDS011;38759;53.396;6.722;2023-10-19T06:45:55;3.85;;;2.90;;
52894;SDS011;38759;53.396;6.722;2023-10-19T06:48:21;3.15;;;2.70;;
52894;SDS011;38759;53.396;6.722;2023-10-19T06:50:47;3.85;;;2.67;;
52894;SDS011;38759;53.396;6.722;2023-10-19T06:53:13;3.53;;;2.63;;
52894;SDS011;38759;53.396;6.722;2023-10-19T06:55:39;3.22;;;2.70;;
52894;SDS011;38759;53.396;6.722;2023-10-19T06:58:05;4.07;;;2.50;;
52894;SDS011;38759;53.396;6.722;2023-10-19T07:00:31;2.38;;;2.17;;
52894;SDS011;38759;53.396;6.722;2023-10-19T07:02:58;4.22;;;2.78;;
52894;SDS011;38759;53.396;6.722;2023-10-19T07:05:28;2.67;;;2.33;;
52894;SDS011;38759;53.396;6.722;2023-10-19T07:07:56;3.58;;;2.45;;
52894;SDS011;38759;53.396;6.722;2023-10-19T07:10:24;5.10;;;3.05;;
52894;SDS011;38759;53.396;6.722;2023-10-19T07:12:52;3.28;;;2.80;;
52894;SDS011;38759;53.396;6.722;2023-10-19T07:15:19;4.75;;;2.90;;
52894;SDS011;38759;53.396;6.722;2023-10-19T07:17:47;3.47;;;2.75;;
52894;SDS011;38759;53.396;6.722;2023-10-19T07:20:15;3.85;;;2.63;;
52894;SDS011;38759;53.396;6.722;2023-10-19T07:22:55;3.40;;;2.90;;
52894;SDS011;38759;53.396;6.722;2023-10-19T07:25:22;3.00;;;2.65;;
52894;SDS011;38759;53.396;6.722;2023-10-19T07:27:51;3.90;;;2.97;;
52894;SDS011;38759;53.396;6.722;2023-10-19T07:30:17;3.75;;;2.70;;
52894;SDS011;38759;53.396;6.722;2023-10-19T07:32:51;3.78;;;2.85;;
52894;SDS011;38759;53.396;6.722;2023-10-19T07:35:23;4.15;;;3.00;;
52894;SDS011;38759;53.396;6.722;2023-10-19T07:37:51;3.17;;;2.45;;
52894;SDS011;38759;53.396;6.722;2023-10-19T07:40:17;3.50;;;2.40;;
52894;SDS011;38759;53.396;6.722;2023-10-19T07:42:44;3.15;;;2.30;;
52894;SDS011;38759;53.396;6.722;2023-10-19T07:45:10;4.72;;;2.35;;
52894;SDS011;38759;53.396;6.722;2023-10-19T07:47:39;4.30;;;2.50;;
52894;SDS011;38759;53.396;6.722;2023-10-19T07:50:11;3.88;;;2.58;;
52894;SDS011;38759;53.396;6.722;2023-10-19T07:52:44;2.40;;;2.20;;
52894;SDS011;38759;53.396;6.722;2023-10-19T07:55:15;2.58;;;2.20;;
52894;SDS011;38759;53.396;6.722;2023-10-19T07:57:42;2.45;;;2.00;;
52894;SDS011;38759;53.396;6.722;2023-10-19T08:00:08;2.83;;;2.10;;
52894;SDS011;38759;53.396;6.722;2023-10-19T08:02:36;5.65;;;2.00;;
52894;SDS011;38759;53.396;6.722;2023-10-19T08:05:03;2.63;;;1.85;;
52894;SDS011;38759;53.396;6.722;2023-10-19T08:07:31;2.33;;;2.10;;
52894;SDS011;38759;53.396;6.722;2023-10-19T08:09:59;3.15;;;2.13;;
52894;SDS011;38759;53.396;6.722;2023-10-19T08:12:25;2.65;;;2.03;;
52894;SDS011;38759;53.396;6.722;2023-10-19T08:14:54;3.30;;;2.15;;
52894;SDS011;38759;53.396;6.722;2023-10-19T08:17:21;2.95;;;2.10;;
52894;SDS011;38759;53.396;6.722;2023-10-19T08:19:47;2.17;;;1.75;;
52894;SDS011;38759;53.396;6.722;2023-10-19T08:22:12;6.28;;;2.10;;
52894;SDS011;38759;53.396;6.722;2023-10-19T08:24:40;2.92;;;2.30;;
52894;SDS011;38759;53.396;6.722;2023-10-19T08:27:08;2.38;;;1.90;;
52894;SDS011;38759;53.396;6.722;2023-10-19T08:29:39;2.50;;;2.10;;
52894;SDS011;38759;53.396;6.722;2023-10-19T08:32:07;2.95;;;1.80;;
52894;SDS011;38759;53.396;6.722;2023-10-19T08:34:34;3.47;;;2.40;;
52894;SDS011;38759;53.396;6.722;2023-10-19T08:37:01;2.80;;;2.20;;
52894;SDS011;38759;53.396;6.722;2023-10-19T08:39:29;2.75;;;2.13;;
52894;SDS011;38759;53.396;6.722;2023-10-19T08:42:01;2.60;;;2.00;;
52894;SDS011;38759;53.396;6.722;2023-10-19T08:44:29;2.85;;;2.20;;
52894;SDS011;38759;53.396;6.722;2023-10-19T08:46:56;5.57;;;2.28;;
52894;SDS011;38759;53.396;6.722;2023-10-19T08:49:22;3.17;;;2.15;;
52894;SDS011;38759;53.396;6.722;2023-10-19T08:51:48;6.90;;;2.60;;
52894;SDS011;38759;53.396;6.722;2023-10-19T08:54:16;3.50;;;2.60;;
52894;SDS011;38759;53.396;6.722;2023-10-19T08:56:42;2.53;;;2.10;;
52894;SDS011;38759;53.396;6.722;2023-10-19T08:59:09;3.78;;;2.53;;
52894;SDS011;38759;53.396;6.722;2023-10-19T09:01:36;4.20;;;2.58;;
52894;SDS011;38759;53.396;6.722;2023-10-19T09:04:02;3.30;;;2.50;;
52894;SDS011;38759;53.396;6.722;2023-10-19T09:06:31;2.22;;;1.88;;
52894;SDS011;38759;53.396;6.722;2023-10-19T09:09:06;2.38;;;2.00;;
52894;SDS011;38759;53.396;6.722;2023-10-19T09:11:45;2.95;;;2.10;;
52894;SDS011;38759;53.396;6.722;2023-10-19T09:14:15;2.10;;;1.90;;
52894;SDS011;38759;53.396;6.722;2023-10-19T09:16:55;3.05;;;1.80;;
52894;SDS011;38759;53.396;6.722;2023-10-19T09:22:12;2.42;;;1.90;;
52894;SDS011;38759;53.396;6.722;2023-10-19T09:24:51;1.85;;;1.67;;
52894;SDS011;38759;53.396;6.722;2023-10-19T09:27:19;1.95;;;1.80;;
52894;SDS011;38759;53.396;6.722;2023-10-19T09:29:45;2.35;;;1.40;;
52894;SDS011;38759;53.396;6.722;2023-10-19T09:32:12;1.88;;;1.67;;
52894;SDS011;38759;53.396;6.722;2023-10-19T09:34:39;1.77;;;1.60;;
52894;SDS011;38759;53.396;6.722;2023-10-19T09:37:09;2.00;;;1.80;;
52894;SDS011;38759;53.396;6.722;2023-10-19T09:39:36;3.53;;;2.00;;
52894;SDS011;38759;53.396;6.722;2023-10-19T09:42:06;2.40;;;1.80;;
52894;SDS011;38759;53.396;6.722;2023-10-19T09:49:56;1.65;;;1.50;;
52894;SDS011;38759;53.396;6.722;2023-10-19T09:52:22;1.80;;;1.52;;
52894;SDS011;38759;53.396;6.722;2023-10-19T09:57:44;1.85;;;1.42;;
52894;SDS011;38759;53.396;6.722;2023-10-19T10:00:17;1.50;;;1.40;;
52894;SDS011;38759;53.396;6.722;2023-10-19T10:02:49;1.50;;;1.40;;
52894;SDS011;38759;53.396;6.722;2023-10-19T10:10:45;2.63;;;1.65;;
52894;SDS011;38759;53.396;6.722;2023-10-19T10:15:49;3.47;;;1.75;;
52894;SDS011;38759;53.396;6.722;2023-10-19T10:18:15;1.75;;;1.50;;
52894;SDS011;38759;53.396;6.722;2023-10-19T10:20:42;2.10;;;1.90;;
52894;SDS011;38759;53.396;6.722;2023-10-19T10:23:20;2.28;;;1.90;;
52894;SDS011;38759;53.396;6.722;2023-10-19T10:25:47;1.92;;;1.70;;
52894;SDS011;38759;53.396;6.722;2023-10-19T10:28:19;2.53;;;1.48;;
52894;SDS011;38759;53.396;6.722;2023-10-19T10:36:10;1.67;;;1.55;;
52894;SDS011;38759;53.396;6.722;2023-10-19T10:38:36;1.92;;;1.40;;
52894;SDS011;38759;53.396;6.722;2023-10-19T10:41:03;1.60;;;1.50;;
52894;SDS011;38759;53.396;6.722;2023-10-19T10:43:29;3.30;;;1.50;;
52894;SDS011;38759;53.396;6.722;2023-10-19T10:46:07;1.92;;;1.77;;
52894;SDS011;38759;53.396;6.722;2023-10-19T10:48:33;1.70;;;1.60;;
52894;SDS011;38759;53.396;6.722;2023-10-19T10:51:14;2.05;;;1.60;;
52894;SDS011;38759;53.396;6.722;2023-10-19T10:53:48;2.58;;;1.58;;
52894;SDS011;38759;53.396;6.722;2023-10-19T10:56:17;1.90;;;1.70;;
52894;SDS011;38759;53.396;6.722;2023-10-19T10:58:47;1.70;;;1.52;;
52894;SDS011;38759;53.396;6.722;2023-10-19T11:01:13;1.95;;;1.60;;
52894;SDS011;38759;53.396;6.722;2023-10-19T11:03:42;2.22;;;1.58;;
52894;SDS011;38759;53.396;6.722;2023-10-19T11:06:11;1.50;;;1.40;;
52894;SDS011;38759;53.396;6.722;2023-10-19T11:08:37;1.55;;;1.38;;
52894;SDS011;38759;53.396;6.722;2023-10-19T11:11:07;2.03;;;1.60;;
52894;SDS011;38759;53.396;6.722;2023-10-19T11:13:36;1.88;;;1.67;;
52894;SDS011;38759;53.396;6.722;2023-10-19T11:16:04;5.63;;;1.65;;
52894;SDS011;38759;53.396;6.722;2023-10-19T11:21:11;1.70;;;1.60;;
52894;SDS011;38759;53.396;6.722;2023-10-19T11:26:08;1.63;;;1.52;;
52894;SDS011;38759;53.396;6.722;2023-10-19T11:28:36;2.35;;;1.67;;
52894;SDS011;38759;53.396;6.722;2023-10-19T11:31:23;1.60;;;1.40;;
52894;SDS011;38759;53.396;6.722;2023-10-19T11:33:52;1.75;;;1.55;;
52894;SDS011;38759;53.396;6.722;2023-10-19T11:36:20;1.50;;;1.40;;
52894;SDS011;38759;53.396;6.722;2023-10-19T11:38:48;1.60;;;1.50;;
52894;SDS011;38759;53.396;6.722;2023-10-19T11:41:16;2.92;;;1.67;;
52894;SDS011;38759;53.396;6.722;2023-10-19T11:43:45;2.85;;;1.95;;
52894;SDS011;38759;53.396;6.722;2023-10-19T11:46:13;3.38;;;1.83;;
52894;SDS011;38759;53.396;6.722;2023-10-19T11:48:48;2.22;;;1.40;;
52894;SDS011;38759;53.396;6.722;2023-10-19T11:51:13;2.67;;;1.73;;
52894;SDS011;38759;53.396;6.722;2023-10-19T11:53:40;1.85;;;1.50;;
52894;SDS011;38759;53.396;6.722;2023-10-19T11:56:08;2.42;;;1.42;;
52894;SDS011;38759;53.396;6.722;2023-10-19T11:58:37;1.63;;;1.52;;
52894;SDS011;38759;53.396;6.722;2023-10-19T12:01:05;6.03;;;1.50;;
52894;SDS011;38759;53.396;6.722;2023-10-19T12:03:36;1.85;;;1.67;;
52894;SDS011;38759;53.396;6.722;2023-10-19T12:06:04;1.88;;;1.50;;
52894;SDS011;38759;53.396;6.722;2023-10-19T12:08:34;2.53;;;1.60;;
52894;SDS011;38759;53.396;6.722;2023-10-19T12:11:00;1.70;;;1.60;;
52894;SDS011;38759;53.396;6.722;2023-10-19T12:13:28;1.95;;;1.60;;
52894;SDS011;38759;53.396;6.722;2023-10-19T12:15:54;3.60;;;1.50;;
52894;SDS011;38759;53.396;6.722;2023-10-19T12:18:23;1.58;;;1.40;;
52894;SDS011;38759;53.396;6.722;2023-10-19T12:20:51;1.70;;;1.60;;
52894;SDS011;38759;53.396;6.722;2023-10-19T12:23:21;4.18;;;1.48;;
52894;SDS011;38759;53.396;6.722;2023-10-19T12:25:48;2.70;;;1.50;;
52894;SDS011;38759;53.396;6.722;2023-10-19T12:28:14;3.25;;;1.50;;
52894;SDS011;38759;53.396;6.722;2023-10-19T12:30:41;1.63;;;1.48;;
52894;SDS011;38759;53.396;6.722;2023-10-19T12:33:07;2.22;;;1.38;;
52894;SDS011;38759;53.396;6.722;2023-10-19T12:35:40;3.85;;;1.90;;
52894;SDS011;38759;53.396;6.722;2023-10-19T12:38:13;1.67;;;1.50;;
52894;SDS011;38759;53.396;6.722;2023-10-19T12:40:45;4.03;;;1.70;;
52894;SDS011;38759;53.396;6.722;2023-10-19T12:43:13;1.60;;;1.50;;
52894;SDS011;38759;53.396;6.722;2023-10-19T12:45:40;1.63;;;1.50;;
52894;SDS011;38759;53.396;6.722;2023-10-19T12:48:08;2.05;;;1.50;;
52894;SDS011;38759;53.396;6.722;2023-10-19T12:50:36;1.67;;;1.48;;
52894;SDS011;38759;53.396;6.722;2023-10-19T12:53:03;1.85;;;1.33;;
52894;SDS011;38759;53.396;6.722;2023-10-19T12:55:29;1.50;;;1.40;;
52894;SDS011;38759;53.396;6.722;2023-10-19T12:57:59;1.58;;;1.40;;
52894;SDS011;38759;53.396;6.722;2023-10-19T13:00:32;1.65;;;1.33;;
52894;SDS011;38759;53.396;6.722;2023-10-19T13:03:09;1.30;;;1.20;;
52894;SDS011;38759;53.396;6.722;2023-10-19T13:05:38;2.25;;;1.23;;
52894;SDS011;38759;53.396;6.722;2023-10-19T13:08:06;2.95;;;1.30;;
52894;SDS011;38759;53.396;6.722;2023-10-19T13:10:44;2.15;;;1.45;;
52894;SDS011;38759;53.396;6.722;2023-10-19T13:13:12;2.55;;;1.50;;
52894;SDS011;38759;53.396;6.722;2023-10-19T13:15:40;1.50;;;1.30;;
52894;SDS011;38759;53.396;6.722;2023-10-19T13:18:07;1.35;;;1.25;;
52894;SDS011;38759;53.396;6.722;2023-10-19T13:20:38;1.77;;;1.30;;
52894;SDS011;38759;53.396;6.722;2023-10-19T13:23:09;3.40;;;1.80;;
52894;SDS011;38759;53.396;6.722;2023-10-19T13:25:41;1.90;;;1.60;;
52894;SDS011;38759;53.396;6.722;2023-10-19T13:28:19;1.75;;;1.65;;
52894;SDS011;38759;53.396;6.722;2023-10-19T13:30:50;2.70;;;1.80;;
52894;SDS011;38759;53.396;6.722;2023-10-19T13:33:21;2.38;;;1.40;;
52894;SDS011;38759;53.396;6.722;2023-10-19T13:35:47;2.53;;;1.70;;
52894;SDS011;38759;53.396;6.722;2023-10-19T13:38:15;4.20;;;1.90;;
52894;SDS011;38759;53.396;6.722;2023-10-19T13:40:42;2.78;;;1.65;;
52894;SDS011;38759;53.396;6.722;2023-10-19T13:43:09;2.58;;;1.80;;
52894;SDS011;38759;53.396;6.722;2023-10-19T13:45:39;1.95;;;1.75;;
52894;SDS011;38759;53.396;6.722;2023-10-19T13:48:07;3.08;;;1.80;;
52894;SDS011;38759;53.396;6.722;2023-10-19T13:50:35;2.55;;;1.88;;
52894;SDS011;38759;53.396;6.722;2023-10-19T13:53:02;2.65;;;1.85;;
52894;SDS011;38759;53.396;6.722;2023-10-19T13:55:30;4.57;;;2.13;;
52894;SDS011;38759;53.396;6.722;2023-10-19T13:57:56;7.38;;;2.40;;
52894;SDS011;38759;53.396;6.722;2023-10-19T14:00:22;4.38;;;2.25;;
52894;SDS011;38759;53.396;6.722;2023-10-19T14:03:04;3.60;;;2.40;;
52894;SDS011;38759;53.396;6.722;2023-10-19T14:05:34;3.90;;;2.53;;
52894;SDS011;38759;53.396;6.722;2023-10-19T14:08:05;3.77;;;2.33;;
52894;SDS011;38759;53.396;6.722;2023-10-19T14:10:32;3.95;;;2.25;;
52894;SDS011;38759;53.396;6.722;2023-10-19T14:12:58;3.65;;;2.30;;
52894;SDS011;38759;53.396;6.722;2023-10-19T14:15:24;4.32;;;2.15;;
52894;SDS011;38759;53.396;6.722;2023-10-19T14:17:52;3.55;;;2.50;;
52894;SDS011;38759;53.396;6.722;2023-10-19T14:20:21;3.50;;;2.30;;
52894;SDS011;38759;53.396;6.722;2023-10-19T14:22:50;3.75;;;2.30;;
52894;SDS011;38759;53.396;6.722;2023-10-19T14:25:18;3.88;;;2.38;;
52894;SDS011;38759;53.396;6.722;2023-10-19T14:27:48;4.53;;;2.40;;
52894;SDS011;38759;53.396;6.722;2023-10-19T14:30:16;4.43;;;2.60;;
52894;SDS011;38759;53.396;6.722;2023-10-19T14:32:44;7.25;;;2.88;;
52894;SDS011;38759;53.396;6.722;2023-10-19T14:35:15;5.75;;;2.97;;
52894;SDS011;38759;53.396;6.722;2023-10-19T14:37:45;4.30;;;2.67;;
52894;SDS011;38759;53.396;6.722;2023-10-19T14:40:19;3.85;;;2.50;;
52894;SDS011;38759;53.396;6.722;2023-10-19T14:42:46;5.07;;;2.78;;
52894;SDS011;38759;53.396;6.722;2023-10-19T14:45:14;4.68;;;2.53;;
52894;SDS011;38759;53.396;6.722;2023-10-19T14:47:48;5.35;;;2.90;;
52894;SDS011;38759;53.396;6.722;2023-10-19T14:50:17;8.05;;;3.13;;
52894;SDS011;38759;53.396;6.722;2023-10-19T14:52:44;4.63;;;2.90;;
52894;SDS011;38759;53.396;6.722;2023-10-19T14:55:11;4.57;;;3.00;;
52894;SDS011;38759;53.396;6.722;2023-10-19T14:57:40;4.43;;;2.95;;
52894;SDS011;38759;53.396;6.722;2023-10-19T15:00:08;7.60;;;3.97;;
52894;SDS011;38759;53.396;6.722;2023-10-19T15:02:46;7.18;;;3.78;;
52894;SDS011;38759;53.396;6.722;2023-10-19T15:05:14;6.45;;;3.53;;
52894;SDS011;38759;53.396;6.722;2023-10-19T15:07:43;6.22;;;3.67;;
52894;SDS011;38759;53.396;6.722;2023-10-19T15:10:17;5.25;;;3.20;;
52894;SDS011;38759;53.396;6.722;2023-10-19T15:12:44;6.63;;;3.78;;
52894;SDS011;38759;53.396;6.722;2023-10-19T15:15:11;9.68;;;3.55;;
52894;SDS011;38759;53.396;6.722;2023-10-19T15:17:40;5.70;;;3.65;;
52894;SDS011;38759;53.396;6.722;2023-10-19T15:20:07;6.97;;;3.53;;
52894;SDS011;38759;53.396;6.722;2023-10-19T15:22:35;6.85;;;3.50;;
52894;SDS011;38759;53.396;6.722;2023-10-19T15:25:01;7.38;;;3.63;;
52894;SDS011;38759;53.396;6.722;2023-10-19T15:27:26;6.18;;;3.58;;
52894;SDS011;38759;53.396;6.722;2023-10-19T15:29:54;7.65;;;4.30;;